Weather at Cameron House Hotel Seaplane Base

Public forecast

Using degrees Celsius for public forecast. Weather courtesy of forecast.io.

Closest aviation weather report (METAR) to Cameron House Hotel Seaplane Base

Closest report is Glasgow International Airport, 10.3 nm (19.1 km) SE.

2024/05/30 15:20 (retrieved 37 minutes ago)

EGPF 301520Z AUTO 30009KT 9999 NCD 18/09 Q1015

Closest aviation forecast (TAF) to Cameron House Hotel Seaplane Base

Closest forecast is Glasgow International Airport, 10.3 nm (19.1 km) SE.

2024/05/30 13:42 Ammendment (retrieved 2 hours ago)

TAF AMD EGPF 301335Z 3013/3112 31008KT 9999 FEW035 PROB30 TEMPO 3013/3018 8000 SHRA PROB30 3100/3106 8000